Time;durP1;ratioP1;P1;durP2;ratioP2;P2;SDS_P1;SDS_P2;PMS_P1;PMS_P2;Temp;Humidity;BMP_temperature;BMP_pressure;BME280_temperature;BME280_humidity;BME280_pressure;Samples;Min_cycle;Max_cycle;Signal;HPM_P1;HPM_P2
2022/08/06 00:00:50;;;;;;;2.43;1.80;;;21.80;99.90;;;;;;6119508;23;20444;-67
2022/08/06 00:03:17;;;;;;;2.10;1.90;;;21.80;99.90;;;;;;6112690;23;20473;-67
2022/08/06 00:05:47;;;;;;;2.20;1.80;;;21.90;99.90;;;;;;6117711;23;20468;-67
2022/08/06 00:08:14;;;;;;;1.53;1.43;;;21.80;99.90;;;;;;6109083;23;20462;-67
2022/08/06 00:10:41;;;;;;;2.07;1.60;;;21.80;99.90;;;;;;6117307;23;20526;-67
2022/08/06 00:13:08;;;;;;;1.90;1.80;;;21.80;99.90;;;;;;6124375;23;20487;-67
2022/08/06 00:15:35;;;;;;;1.60;1.50;;;21.80;99.90;;;;;;6112896;23;20437;-67
2022/08/06 00:18:02;;;;;;;3.00;1.50;;;21.80;99.90;;;;;;6115634;23;20944;-67
2022/08/06 00:20:30;;;;;;;2.03;1.73;;;21.70;99.90;;;;;;6116333;23;20568;-68
2022/08/06 00:22:59;;;;;;;1.80;1.70;;;21.70;99.90;;;;;;6108187;23;20429;-67
2022/08/06 00:25:26;;;;;;;2.37;1.60;;;21.80;99.90;;;;;;6118273;23;20440;-67
2022/08/06 00:27:53;;;;;;;2.00;1.80;;;21.70;99.90;;;;;;6118604;23;20492;-67
2022/08/06 00:30:20;;;;;;;2.13;1.83;;;21.80;99.90;;;;;;6111083;23;20465;-67
2022/08/06 00:32:48;;;;;;;1.77;1.67;;;21.80;99.90;;;;;;6114953;23;20494;-67
2022/08/06 00:35:15;;;;;;;2.00;1.50;;;21.80;99.90;;;;;;6113611;23;20532;-68
2022/08/06 00:37:42;;;;;;;2.37;1.80;;;21.90;99.90;;;;;;6111836;23;20478;-67
2022/08/06 00:40:11;;;;;;;1.53;1.43;;;21.90;99.90;;;;;;6118845;23;20502;-67
2022/08/06 00:42:39;;;;;;;1.70;1.43;;;21.90;99.90;;;;;;6118760;23;20448;-67
2022/08/06 00:45:07;;;;;;;1.60;1.50;;;21.90;99.90;;;;;;6117121;23;20437;-67
2022/08/06 00:47:35;;;;;;;1.90;1.80;;;21.80;99.90;;;;;;6116542;23;20514;-68
2022/08/06 00:50:02;;;;;;;2.10;1.50;;;21.80;99.90;;;;;;6107588;23;20476;-67
2022/08/06 00:52:29;;;;;;;1.77;1.57;;;21.80;99.90;;;;;;6118080;23;20444;-67
2022/08/06 00:54:56;;;;;;;2.27;1.67;;;21.80;99.90;;;;;;6114589;23;20440;-67
2022/08/06 00:57:24;;;;;;;1.77;1.60;;;21.80;99.90;;;;;;6117502;23;20766;-67
2022/08/06 00:59:52;;;;;;;1.70;1.60;;;21.90;99.90;;;;;;6113778;23;20902;-67
2022/08/06 01:02:19;;;;;;;1.60;1.50;;;21.70;99.90;;;;;;6114329;23;21491;-67
2022/08/06 01:04:46;;;;;;;2.20;1.70;;;21.60;99.90;;;;;;6118766;23;20474;-67
2022/08/06 01:07:13;;;;;;;1.90;1.77;;;21.50;99.90;;;;;;6117893;23;20448;-67
2022/08/06 01:09:40;;;;;;;1.60;1.43;;;21.40;99.90;;;;;;6117589;23;20433;-67
2022/08/06 01:12:07;;;;;;;2.23;1.70;;;21.40;99.90;;;;;;6117958;23;20475;-67
2022/08/06 01:14:36;;;;;;;1.80;1.70;;;21.40;99.90;;;;;;6112327;23;20496;-67
2022/08/06 01:17:08;;;;;;;1.93;1.47;;;21.30;99.90;;;;;;6107472;23;20468;-67
2022/08/06 01:19:52;;;;;;;3.23;1.50;;;21.30;99.90;;;;;;6110778;23;20499;-67
2022/08/06 01:22:38;;;;;;;2.33;1.40;;;21.30;99.90;;;;;;6112329;23;20444;-67
2022/08/06 01:25:25;;;;;;;1.70;1.50;;;21.30;99.90;;;;;;6112572;23;20438;-67
2022/08/06 01:27:58;;;;;;;4.50;1.60;;;21.30;99.90;;;;;;6107732;23;20641;-67
2022/08/06 01:30:32;;;;;;;1.77;1.50;;;21.40;99.90;;;;;;6112244;23;20514;-67
2022/08/06 01:33:05;;;;;;;1.40;1.30;;;21.20;99.90;;;;;;6113975;23;20448;-67
2022/08/06 01:35:38;;;;;;;3.23;1.80;;;21.20;99.90;;;;;;6114892;23;20501;-67
2022/08/06 01:38:10;;;;;;;2.60;1.50;;;21.20;99.90;;;;;;6112538;23;20487;-67
2022/08/06 01:40:40;;;;;;;1.70;1.40;;;21.20;99.90;;;;;;6116924;23;20534;-67
2022/08/06 01:43:12;;;;;;;1.70;1.60;;;21.20;99.90;;;;;;6117572;23;20491;-67
2022/08/06 01:45:40;;;;;;;1.80;1.70;;;21.20;99.90;;;;;;6109045;23;20439;-67
2022/08/06 01:48:12;;;;;;;1.80;1.30;;;21.20;99.90;;;;;;6112225;23;20465;-67
2022/08/06 01:50:44;;;;;;;1.47;1.30;;;21.20;99.90;;;;;;6115212;23;20472;-67
2022/08/06 01:53:16;;;;;;;1.50;1.40;;;21.20;99.90;;;;;;6113507;23;20441;-67
2022/08/06 01:55:47;;;;;;;1.50;1.40;;;21.10;99.90;;;;;;6110509;23;20460;-67
2022/08/06 01:58:18;;;;;;;2.93;1.47;;;21.10;99.90;;;;;;6113832;23;20499;-67
2022/08/06 02:00:51;;;;;;;2.80;1.87;;;21.10;99.90;;;;;;6112627;23;20465;-67
2022/08/06 02:03:25;;;;;;;1.43;1.30;;;21.10;99.90;;;;;;6115316;23;20518;-67
2022/08/06 02:05:54;;;;;;;2.23;1.60;;;21.10;99.90;;;;;;6117264;23;20485;-67
2022/08/06 02:08:25;;;;;;;2.63;1.60;;;21.10;99.90;;;;;;6116801;23;20461;-67
2022/08/06 02:10:54;;;;;;;1.53;1.40;;;21.10;99.90;;;;;;6114552;23;20452;-67
2022/08/06 02:13:24;;;;;;;1.97;1.43;;;21.10;99.90;;;;;;6108208;23;20465;-67
2022/08/06 02:15:52;;;;;;;1.73;1.63;;;21.00;99.90;;;;;;6110481;23;20484;-67
2022/08/06 02:18:21;;;;;;;2.23;1.80;;;21.00;99.90;;;;;;6110742;23;20468;-67
2022/08/06 02:20:52;;;;;;;2.07;1.87;;;21.00;99.90;;;;;;6108145;23;20447;-68
2022/08/06 02:23:23;;;;;;;3.03;1.50;;;20.90;99.90;;;;;;6108831;23;20452;-67
2022/08/06 02:25:52;;;;;;;1.60;1.50;;;20.80;99.90;;;;;;6113758;23;20916;-67
2022/08/06 02:28:23;;;;;;;1.73;1.50;;;20.80;99.90;;;;;;6113531;23;20485;-67
2022/08/06 02:30:54;;;;;;;1.70;1.60;;;20.70;99.90;;;;;;6112271;23;20441;-67
2022/08/06 02:33:21;;;;;;;1.63;1.53;;;20.50;99.90;;;;;;6110369;23;20469;-68
2022/08/06 02:35:51;;;;;;;2.37;1.57;;;20.60;99.90;;;;;;6112378;23;20477;-67
2022/08/06 02:38:23;;;;;;;1.70;1.50;;;20.60;99.90;;;;;;6115463;23;20489;-67
2022/08/06 02:40:57;;;;;;;2.90;1.90;;;20.60;99.90;;;;;;6110983;23;20469;-67
2022/08/06 02:43:32;;;;;;;1.90;1.60;;;20.60;99.90;;;;;;6117065;23;20855;-67
2022/08/06 02:46:04;;;;;;;2.33;2.10;;;20.60;99.90;;;;;;6108704;23;20525;-67
2022/08/06 02:48:37;;;;;;;2.07;1.87;;;20.60;99.90;;;;;;6113116;23;20466;-67
2022/08/06 02:51:09;;;;;;;1.70;1.60;;;20.60;99.90;;;;;;6120429;23;20445;-67
2022/08/06 02:53:43;;;;;;;1.93;1.77;;;20.60;99.90;;;;;;6116079;23;20442;-67
2022/08/06 02:56:14;;;;;;;3.60;1.93;;;20.60;99.90;;;;;;6117588;23;20449;-67
2022/08/06 02:58:45;;;;;;;1.73;1.47;;;20.60;99.90;;;;;;6125671;23;20481;-67
2022/08/06 03:01:18;;;;;;;1.90;1.60;;;20.60;99.90;;;;;;6116950;23;20442;-67
2022/08/06 03:03:48;;;;;;;1.60;1.50;;;20.60;99.90;;;;;;6115710;23;20441;-67
2022/08/06 03:06:19;;;;;;;2.87;1.73;;;20.50;99.90;;;;;;6106053;23;20453;-67
2022/08/06 03:08:46;;;;;;;3.37;1.67;;;20.50;99.90;;;;;;6124537;23;20457;-67
2022/08/06 03:11:16;;;;;;;1.70;1.60;;;20.50;99.90;;;;;;6117867;23;20449;-67
2022/08/06 03:13:46;;;;;;;2.03;1.60;;;20.50;99.90;;;;;;6113041;23;20476;-67
2022/08/06 03:16:14;;;;;;;1.60;1.50;;;20.50;99.90;;;;;;6117164;23;20445;-67
2022/08/06 03:18:44;;;;;;;3.50;1.60;;;20.50;99.90;;;;;;6114551;23;20458;-67
2022/08/06 03:21:12;;;;;;;2.13;1.50;;;20.50;99.90;;;;;;6116282;23;20438;-67
2022/08/06 03:23:40;;;;;;;2.43;1.80;;;20.40;99.90;;;;;;6117678;23;20444;-67
2022/08/06 03:26:08;;;;;;;2.00;1.60;;;20.40;99.90;;;;;;6116422;23;20499;-67
2022/08/06 03:28:36;;;;;;;1.50;1.40;;;20.40;99.90;;;;;;6126005;23;20488;-67
2022/08/06 03:31:05;;;;;;;1.60;1.50;;;20.50;99.90;;;;;;6117472;23;20457;-67
2022/08/06 03:33:35;;;;;;;4.17;1.67;;;20.50;99.90;;;;;;6107881;23;20444;-67
2022/08/06 03:36:03;;;;;;;2.40;1.80;;;20.50;99.90;;;;;;6113137;23;20479;-67
2022/08/06 03:38:37;;;;;;;1.50;1.40;;;20.60;99.90;;;;;;6111717;23;20460;-67
2022/08/06 03:41:07;;;;;;;2.47;1.77;;;20.60;99.90;;;;;;6118137;23;20544;-67
2022/08/06 03:43:35;;;;;;;1.53;1.43;;;20.60;99.90;;;;;;6117473;23;20469;-67
2022/08/06 03:46:06;;;;;;;1.80;1.50;;;20.60;99.90;;;;;;6119981;23;20440;-66
2022/08/06 03:48:37;;;;;;;3.47;2.20;;;20.60;99.90;;;;;;6112946;23;20563;-66
2022/08/06 03:51:06;;;;;;;2.30;1.63;;;20.60;99.90;;;;;;6109250;23;20439;-67
2022/08/06 03:53:36;;;;;;;2.40;1.80;;;20.60;99.90;;;;;;6117501;23;20445;-66
2022/08/06 03:56:07;;;;;;;1.90;1.60;;;20.60;99.90;;;;;;6117630;23;20471;-66
2022/08/06 03:58:38;;;;;;;2.30;1.40;;;20.60;99.90;;;;;;6113875;23;20471;-67
2022/08/06 04:01:10;;;;;;;3.00;1.90;;;20.60;99.90;;;;;;6107283;23;20552;-67
2022/08/06 04:03:38;;;;;;;1.70;1.60;;;20.60;99.90;;;;;;6117490;23;20466;-67
2022/08/06 04:06:09;;;;;;;1.87;1.77;;;20.60;99.90;;;;;;6113145;23;20440;-67
2022/08/06 04:08:38;;;;;;;2.33;1.63;;;20.50;99.90;;;;;;6113057;23;20460;-67
2022/08/06 04:11:06;;;;;;;1.93;1.73;;;20.50;99.90;;;;;;6115143;23;20595;-67
2022/08/06 04:13:34;;;;;;;2.37;1.80;;;20.50;99.90;;;;;;6116912;23;20435;-66
2022/08/06 04:16:01;;;;;;;1.87;1.77;;;20.50;99.90;;;;;;6116144;23;20991;-67
2022/08/06 04:18:33;;;;;;;2.50;1.67;;;20.50;99.90;;;;;;6109800;23;20813;-67
2022/08/06 04:21:03;;;;;;;1.63;1.53;;;20.50;99.90;;;;;;6115114;23;20473;-66
2022/08/06 04:23:30;;;;;;;2.30;1.90;;;20.50;99.90;;;;;;6111931;23;20441;-67
2022/08/06 04:26:00;;;;;;;2.20;1.63;;;20.50;99.90;;;;;;6108435;23;20867;-66
2022/08/06 04:28:29;;;;;;;1.60;1.50;;;20.50;99.90;;;;;;6112427;23;20461;-66
2022/08/06 04:30:59;;;;;;;2.27;1.83;;;20.50;99.90;;;;;;6115226;23;20445;-66
2022/08/06 04:33:28;;;;;;;1.70;1.60;;;20.50;99.90;;;;;;6114918;23;20965;-66
2022/08/06 04:35:56;;;;;;;1.80;1.60;;;20.50;99.90;;;;;;6108247;23;20446;-66
2022/08/06 04:38:24;;;;;;;1.90;1.63;;;20.50;99.90;;;;;;6114691;23;20530;-66
2022/08/06 04:40:52;;;;;;;2.60;1.80;;;20.50;99.90;;;;;;6110331;23;20492;-67
2022/08/06 04:43:20;;;;;;;2.00;1.80;;;20.50;99.90;;;;;;6119402;23;20430;-66
2022/08/06 04:45:49;;;;;;;2.03;1.70;;;20.50;99.90;;;;;;6103832;23;20520;-66
2022/08/06 04:48:17;;;;;;;2.00;1.83;;;20.50;99.90;;;;;;6110364;23;20455;-67
2022/08/06 04:50:44;;;;;;;2.40;1.97;;;20.50;99.90;;;;;;6115482;23;20490;-67
2022/08/06 04:53:14;;;;;;;1.93;1.83;;;20.60;99.90;;;;;;6108541;23;20433;-67
2022/08/06 04:55:44;;;;;;;2.83;1.67;;;20.60;99.90;;;;;;6112111;23;20835;-67
2022/08/06 04:58:13;;;;;;;1.90;1.80;;;20.60;99.90;;;;;;6110780;23;21418;-67
2022/08/06 05:00:43;;;;;;;1.60;1.50;;;20.50;99.90;;;;;;6120605;23;20475;-66
2022/08/06 05:03:10;;;;;;;4.43;2.00;;;20.60;99.90;;;;;;6119554;23;20464;-67
2022/08/06 05:05:40;;;;;;;2.37;1.77;;;20.60;99.90;;;;;;6113131;23;20522;-67
2022/08/06 05:08:09;;;;;;;1.80;1.60;;;20.60;99.90;;;;;;6116859;23;20504;-66
2022/08/06 05:10:43;;;;;;;2.43;1.70;;;20.70;99.90;;;;;;6113490;23;20767;-66
2022/08/06 05:13:14;;;;;;;3.00;1.97;;;20.70;99.90;;;;;;6127203;23;20442;-68
2022/08/06 05:15:44;;;;;;;1.77;1.47;;;20.80;99.90;;;;;;6117337;23;20457;-66
2022/08/06 05:18:15;;;;;;;2.10;1.90;;;20.70;99.90;;;;;;6114070;23;20467;-66
2022/08/06 05:20:47;;;;;;;1.77;1.57;;;20.70;99.90;;;;;;6116056;23;20461;-66
2022/08/06 05:23:18;;;;;;;2.13;2.03;;;20.60;99.90;;;;;;6110673;23;20442;-67
2022/08/06 05:25:47;;;;;;;3.00;1.97;;;20.70;99.90;;;;;;6115050;23;20526;-66
2022/08/06 05:28:14;;;;;;;2.03;1.90;;;20.60;99.90;;;;;;6120322;23;20944;-67
2022/08/06 05:30:47;;;;;;;2.17;2.00;;;20.50;99.90;;;;;;6118766;23;20483;-66
2022/08/06 05:33:23;;;;;;;2.63;1.90;;;20.50;99.90;;;;;;6118651;23;20459;-67
2022/08/06 05:35:50;;;;;;;2.00;1.90;;;20.50;99.90;;;;;;6129268;23;21047;-67
2022/08/06 05:38:18;;;;;;;2.77;2.20;;;20.50;99.90;;;;;;6110550;23;20449;-66
2022/08/06 05:40:45;;;;;;;2.20;1.87;;;20.50;99.90;;;;;;6110811;23;20485;-68
2022/08/06 05:43:13;;;;;;;2.53;1.93;;;20.50;99.90;;;;;;6113237;23;20550;-67
2022/08/06 05:45:42;;;;;;;1.97;1.87;;;20.50;99.90;;;;;;6108628;23;20554;-67
2022/08/06 05:48:12;;;;;;;2.23;1.80;;;20.50;99.90;;;;;;6110909;23;20565;-67
2022/08/06 05:50:47;;;;;;;1.90;1.73;;;20.50;99.90;;;;;;6111919;23;20486;-67
2022/08/06 05:53:20;;;;;;;2.10;1.90;;;20.70;99.90;;;;;;6112950;23;20471;-66
2022/08/06 05:55:52;;;;;;;2.20;2.00;;;20.70;99.90;;;;;;6120060;23;20464;-66
2022/08/06 05:58:26;;;;;;;2.10;1.90;;;20.70;99.90;;;;;;6129723;23;20456;-67
2022/08/06 06:00:54;;;;;;;2.20;2.00;;;20.80;99.90;;;;;;6130781;23;20466;-65
2022/08/06 06:03:23;;;;;;;2.27;1.87;;;20.80;99.90;;;;;;6101363;23;20464;-64
2022/08/06 06:05:51;;;;;;;2.73;2.10;;;20.90;99.90;;;;;;6114965;23;21424;-65
2022/08/06 06:08:19;;;;;;;2.67;1.90;;;20.90;99.90;;;;;;6108446;23;20985;-65
2022/08/06 06:10:47;;;;;;;3.60;1.97;;;20.90;99.90;;;;;;6115727;23;20451;-65
2022/08/06 06:13:15;;;;;;;2.57;2.10;;;21.00;99.90;;;;;;6118569;23;20490;-65
2022/08/06 06:15:51;;;;;;;2.43;1.87;;;21.10;99.90;;;;;;6114566;23;20524;-65
2022/08/06 06:18:28;;;;;;;1.83;1.73;;;21.10;99.90;;;;;;6115257;23;20487;-70
2022/08/06 06:21:01;;;;;;;2.60;2.40;;;21.20;99.90;;;;;;6113791;23;20521;-65
2022/08/06 06:23:34;;;;;;;2.90;2.00;;;21.20;99.90;;;;;;6121805;23;20474;-65
2022/08/06 06:26:13;;;;;;;2.00;1.90;;;21.30;99.90;;;;;;6121217;23;20585;-66
2022/08/06 06:28:52;;;;;;;3.33;2.40;;;21.30;99.90;;;;;;6118167;23;20465;-66
2022/08/06 06:31:29;;;;;;;2.17;1.97;;;21.40;99.90;;;;;;6120657;23;20474;-67
2022/08/06 06:34:03;;;;;;;2.27;2.07;;;21.40;99.90;;;;;;6120811;23;20441;-66
2022/08/06 06:36:37;;;;;;;2.43;2.13;;;21.50;99.90;;;;;;6116450;23;20448;-66
2022/08/06 06:39:07;;;;;;;2.03;1.90;;;21.60;99.90;;;;;;6109454;23;20477;-66
2022/08/06 06:41:40;;;;;;;6.30;2.50;;;21.70;99.90;;;;;;6120574;23;20960;-66
2022/08/06 06:44:15;;;;;;;3.20;2.10;;;21.80;99.90;;;;;;6119799;23;20433;-69
2022/08/06 06:46:50;;;;;;;2.70;1.73;;;22.00;99.90;;;;;;6114177;23;20480;-66
2022/08/06 06:49:23;;;;;;;2.90;2.00;;;22.00;99.90;;;;;;6115645;23;20436;-66
2022/08/06 06:51:54;;;;;;;2.07;1.83;;;22.10;99.90;;;;;;6095019;23;20433;-66
2022/08/06 06:54:26;;;;;;;2.33;2.00;;;22.20;99.90;;;;;;6101664;23;20527;-67
2022/08/06 06:56:55;;;;;;;2.17;1.53;;;22.50;99.90;;;;;;6094149;23;21026;-67
2022/08/06 06:59:34;;;;;;;2.10;1.87;;;22.40;99.90;;;;;;6115803;23;20436;-67
2022/08/06 07:02:04;;;;;;;2.60;2.00;;;22.50;99.90;;;;;;6136420;23;20531;-67
2022/08/06 07:04:32;;;;;;;2.07;1.70;;;22.60;99.90;;;;;;6106866;23;20830;-66
2022/08/06 07:07:02;;;;;;;1.87;1.70;;;22.70;99.90;;;;;;6100078;23;20477;-66
2022/08/06 07:09:32;;;;;;;3.20;2.30;;;22.90;99.90;;;;;;6114262;23;20502;-67
2022/08/06 07:12:01;;;;;;;3.23;2.10;;;23.00;99.70;;;;;;6098716;23;20446;-66
2022/08/06 07:14:29;;;;;;;3.83;1.50;;;23.20;99.60;;;;;;6118107;23;20487;-66
2022/08/06 07:16:58;;;;;;;2.20;2.00;;;23.30;99.20;;;;;;6112213;23;20537;-66
2022/08/06 07:19:27;;;;;;;2.00;1.90;;;23.40;98.80;;;;;;6104502;23;20434;-67
2022/08/06 07:21:55;;;;;;;1.80;1.70;;;23.50;98.20;;;;;;6126893;23;20500;-66
2022/08/06 07:24:24;;;;;;;1.80;1.70;;;23.50;98.30;;;;;;6106658;23;20469;-66
2022/08/06 07:26:55;;;;;;;1.90;1.70;;;23.50;98.10;;;;;;6105721;23;20587;-67
2022/08/06 07:29:22;;;;;;;2.33;2.13;;;23.70;98.00;;;;;;6112806;23;20437;-67
2022/08/06 07:31:50;;;;;;;1.70;1.60;;;23.40;97.30;;;;;;6092979;23;20454;-66
2022/08/06 07:34:18;;;;;;;2.60;1.90;;;23.60;97.50;;;;;;6126885;23;20470;-67
2022/08/06 07:36:52;;;;;;;2.60;2.20;;;23.70;97.70;;;;;;6106082;23;20481;-67
2022/08/06 07:39:28;;;;;;;1.80;1.70;;;23.70;97.60;;;;;;6116511;23;20442;-67
2022/08/06 07:41:57;;;;;;;2.60;1.70;;;23.80;97.40;;;;;;6104357;23;20520;-66
2022/08/06 07:44:27;;;;;;;1.93;1.83;;;23.90;97.10;;;;;;6112143;23;20469;-67
2022/08/06 07:46:59;;;;;;;1.60;1.50;;;24.10;96.70;;;;;;6111781;23;20959;-67
2022/08/06 07:49:35;;;;;;;2.07;1.90;;;24.30;96.30;;;;;;6112573;23;20472;-67
2022/08/06 07:52:05;;;;;;;1.83;1.63;;;24.50;95.80;;;;;;6111462;23;20483;-67
2022/08/06 07:54:33;;;;;;;2.80;1.70;;;24.60;95.30;;;;;;6108609;23;20437;-67
2022/08/06 07:57:01;;;;;;;1.87;1.70;;;24.60;95.10;;;;;;6111481;23;20493;-67
2022/08/06 07:59:29;;;;;;;1.90;1.80;;;24.70;95.00;;;;;;6111318;23;20472;-67
2022/08/06 08:01:56;;;;;;;2.40;1.70;;;24.70;94.80;;;;;;6107106;23;20499;-67
2022/08/06 08:07:10;;;;;;;3.33;1.80;;;24.70;94.60;;;;;;6104144;23;20465;-66
2022/08/06 08:09:38;;;;;;;1.60;1.50;;;24.50;94.30;;;;;;6107833;23;20789;-67
2022/08/06 08:12:07;;;;;;;2.10;1.90;;;24.40;94.30;;;;;;6104270;23;20468;-67
2022/08/06 08:14:35;;;;;;;1.97;1.87;;;24.30;94.40;;;;;;6105449;23;20523;-67
2022/08/06 08:17:02;;;;;;;2.20;1.80;;;24.10;94.50;;;;;;6101219;23;20537;-66
2022/08/06 08:19:33;;;;;;;1.57;1.47;;;24.00;94.40;;;;;;6107304;23;20451;-66
2022/08/06 08:22:02;;;;;;;2.10;1.53;;;24.00;94.80;;;;;;6105399;23;20570;-66
2022/08/06 08:24:31;;;;;;;3.80;1.90;;;24.00;94.20;;;;;;6118003;23;20437;-66
2022/08/06 08:26:59;;;;;;;1.70;1.60;;;24.00;94.40;;;;;;6118089;23;20514;-66
2022/08/06 08:29:26;;;;;;;2.60;1.90;;;24.20;94.70;;;;;;6112263;23;21572;-71
2022/08/06 08:31:55;;;;;;;3.20;1.80;;;24.50;94.10;;;;;;6102558;23;20437;-67
2022/08/06 08:34:23;;;;;;;2.07;1.60;;;24.70;93.20;;;;;;6096182;23;20440;-67
2022/08/06 08:36:50;;;;;;;1.60;1.50;;;24.60;93.00;;;;;;6100962;23;20468;-67
2022/08/06 08:39:17;;;;;;;1.93;1.63;;;24.80;93.00;;;;;;6107099;23;20790;-67
2022/08/06 08:41:49;;;;;;;1.50;1.40;;;24.90;92.90;;;;;;6100393;23;20468;-68
2022/08/06 08:44:25;;;;;;;1.77;1.53;;;24.90;92.50;;;;;;6114808;23;20438;-69
2022/08/06 08:46:52;;;;;;;1.93;1.70;;;24.80;92.10;;;;;;6104372;23;20533;-67
2022/08/06 08:49:26;;;;;;;1.90;1.63;;;24.70;92.30;;;;;;6107238;23;20470;-67
2022/08/06 08:51:53;;;;;;;1.93;1.70;;;24.70;92.30;;;;;;6114956;23;20451;-67
2022/08/06 08:54:23;;;;;;;3.03;1.80;;;24.70;92.10;;;;;;6107496;23;20435;-67
2022/08/06 08:56:52;;;;;;;2.57;1.80;;;24.70;91.70;;;;;;6107238;23;20847;-67
2022/08/06 08:59:20;;;;;;;2.23;1.73;;;24.70;91.30;;;;;;6101468;23;20841;-68
2022/08/06 09:01:49;;;;;;;1.90;1.70;;;24.80;90.90;;;;;;6124556;23;20625;-68
2022/08/06 09:04:17;;;;;;;3.17;2.20;;;24.80;90.40;;;;;;6103743;23;21118;-67
2022/08/06 09:06:44;;;;;;;2.07;1.43;;;24.60;89.20;;;;;;6109679;23;20478;-67
2022/08/06 09:09:11;;;;;;;2.10;1.90;;;24.40;90.40;;;;;;6106796;23;20436;-67
2022/08/06 09:11:39;;;;;;;2.90;2.03;;;24.60;90.70;;;;;;6104591;23;20523;-66
2022/08/06 09:14:09;;;;;;;2.03;1.80;;;24.30;90.40;;;;;;6107130;23;20503;-67
2022/08/06 09:16:38;;;;;;;1.60;1.50;;;23.90;90.60;;;;;;6102149;23;22370;-67
2022/08/06 09:19:06;;;;;;;3.57;1.60;;;23.80;90.30;;;;;;6100079;23;20443;-68
2022/08/06 09:21:33;;;;;;;1.83;1.40;;;24.10;91.20;;;;;;6104031;23;20712;-67
2022/08/06 09:24:01;;;;;;;1.90;1.30;;;24.70;90.70;;;;;;6105183;23;20515;-67
2022/08/06 09:26:28;;;;;;;2.03;1.37;;;25.50;90.00;;;;;;6106173;23;20454;-68
2022/08/06 09:28:55;;;;;;;1.77;1.20;;;26.40;87.60;;;;;;6095467;23;20456;-67
2022/08/06 09:31:24;;;;;;;2.00;1.13;;;27.10;84.20;;;;;;6101968;23;20865;-71
2022/08/06 09:33:56;;;;;;;2.30;1.40;;;27.90;79.90;;;;;;6100361;23;20492;-67
2022/08/06 09:36:24;;;;;;;1.30;1.20;;;28.30;77.90;;;;;;6111369;23;20500;-67
2022/08/06 09:38:54;;;;;;;1.40;1.30;;;28.40;76.70;;;;;;6113331;23;20461;-68
2022/08/06 09:41:22;;;;;;;1.87;1.53;;;28.30;74.40;;;;;;6109074;23;20518;-67
2022/08/06 09:43:51;;;;;;;1.33;1.13;;;28.10;74.00;;;;;;6100184;23;20445;-67
2022/08/06 09:46:35;;;;;;;2.60;1.40;;;27.80;72.90;;;;;;6107492;23;20944;-67
2022/08/06 09:49:04;;;;;;;1.87;1.30;;;27.80;72.60;;;;;;6111184;23;20520;-67
2022/08/06 09:51:34;;;;;;;1.67;1.33;;;27.90;72.40;;;;;;6109536;23;21000;-67
2022/08/06 09:54:02;;;;;;;3.20;1.67;;;28.20;73.40;;;;;;6103510;23;20441;-67
2022/08/06 09:56:29;;;;;;;1.73;1.60;;;27.80;73.20;;;;;;6112434;23;20519;-67
2022/08/06 09:58:59;;;;;;;2.07;1.33;;;27.50;74.20;;;;;;6108953;23;20465;-67
2022/08/06 10:01:26;;;;;;;1.60;1.40;;;27.30;75.20;;;;;;6102141;23;20928;-67
2022/08/06 10:03:55;;;;;;;2.17;1.30;;;27.20;74.50;;;;;;6109388;23;20545;-68
2022/08/06 10:06:25;;;;;;;2.70;1.70;;;27.20;74.20;;;;;;6110428;23;20488;-67
2022/08/06 10:09:09;;;;;;;1.43;1.33;;;27.20;70.60;;;;;;6109618;23;20425;-67
2022/08/06 10:11:37;;;;;;;2.07;1.30;;;26.80;70.60;;;;;;6104627;23;20473;-64
2022/08/06 10:14:05;;;;;;;1.57;1.40;;;26.70;72.00;;;;;;6100701;23;20916;-64
2022/08/06 10:16:32;;;;;;;2.37;1.50;;;26.40;72.70;;;;;;6111343;23;20461;-68
2022/08/06 10:19:02;;;;;;;1.97;1.40;;;26.30;72.90;;;;;;6105582;23;20445;-68
2022/08/06 10:21:34;;;;;;;1.47;1.33;;;26.20;73.40;;;;;;6106743;23;20464;-67
2022/08/06 10:24:04;;;;;;;1.40;1.30;;;26.20;74.10;;;;;;6108154;23;20442;-67
2022/08/06 10:26:33;;;;;;;2.20;1.57;;;26.20;73.40;;;;;;6111143;23;20530;-67
2022/08/06 10:29:04;;;;;;;2.20;1.67;;;26.10;73.30;;;;;;6108158;23;20437;-67
2022/08/06 10:31:32;;;;;;;1.80;1.40;;;26.10;73.60;;;;;;6111636;23;20496;-67
2022/08/06 10:34:01;;;;;;;3.90;1.50;;;26.10;74.10;;;;;;6111627;23;20519;-68
2022/08/06 10:36:40;;;;;;;1.70;1.50;;;25.80;72.50;;;;;;6106297;23;20529;-67
2022/08/06 10:39:08;;;;;;;2.30;1.53;;;25.50;75.40;;;;;;6112297;23;20447;-67
2022/08/06 10:41:38;;;;;;;1.70;1.40;;;25.80;75.50;;;;;;6105149;23;20489;-67
2022/08/06 10:44:06;;;;;;;1.40;1.10;;;26.60;74.50;;;;;;6111698;23;20487;-67
2022/08/06 10:46:35;;;;;;;1.63;1.50;;;27.10;72.50;;;;;;6106738;23;20577;-66
2022/08/06 10:49:02;;;;;;;2.00;1.50;;;27.50;70.80;;;;;;6114363;23;20553;-66
2022/08/06 10:51:30;;;;;;;1.93;1.70;;;27.50;71.50;;;;;;6119844;23;20456;-66
2022/08/06 10:53:58;;;;;;;1.50;1.40;;;27.50;69.80;;;;;;6118115;23;20529;-66
2022/08/06 10:56:26;;;;;;;1.63;1.53;;;27.20;70.20;;;;;;6101786;23;20454;-66
2022/08/06 10:58:54;;;;;;;2.00;1.60;;;26.70;71.40;;;;;;6105306;23;20438;-66
2022/08/06 11:01:29;;;;;;;2.77;1.90;;;26.40;71.60;;;;;;6101600;23;20937;-66
2022/08/06 11:04:12;;;;;;;1.70;1.60;;;26.60;71.40;;;;;;6111229;23;20495;-66
2022/08/06 11:07:12;;;;;;;2.30;1.50;;;27.00;71.20;;;;;;6103885;23;20477;-66
2022/08/06 11:09:57;;;;;;;1.87;1.67;;;27.40;71.10;;;;;;6109079;23;20458;-67
2022/08/06 11:12:40;;;;;;;2.73;1.60;;;27.80;68.80;;;;;;6102105;23;20855;-66
2022/08/06 11:15:08;;;;;;;3.07;1.77;;;28.00;69.50;;;;;;6114357;23;20438;-66
2022/08/06 11:17:46;;;;;;;1.60;1.47;;;28.10;67.70;;;;;;6111454;23;20544;-66
2022/08/06 11:20:37;;;;;;;1.63;1.40;;;28.20;68.10;;;;;;6107082;23;20449;-66
2022/08/06 11:23:05;;;;;;;2.10;1.77;;;28.70;66.30;;;;;;6106360;23;20541;-66
2022/08/06 11:25:41;;;;;;;2.40;1.90;;;28.60;65.60;;;;;;6105204;23;20548;-67
2022/08/06 11:28:09;;;;;;;2.93;1.40;;;27.50;67.20;;;;;;6108515;23;20484;-66
2022/08/06 11:30:42;;;;;;;2.93;1.60;;;27.10;69.30;;;;;;6118298;23;20434;-67
2022/08/06 11:33:12;;;;;;;4.57;1.80;;;27.40;68.80;;;;;;6108433;23;20438;-66
2022/08/06 11:35:41;;;;;;;1.90;1.47;;;27.60;69.40;;;;;;6109463;23;20437;-66
2022/08/06 11:38:10;;;;;;;2.27;1.70;;;28.00;67.50;;;;;;6105810;23;20484;-66
2022/08/06 11:41:01;;;;;;;1.73;1.63;;;27.90;66.60;;;;;;6102489;23;20517;-66
2022/08/06 11:43:48;;;;;;;1.83;1.50;;;27.70;67.70;;;;;;6109602;23;20462;-66
2022/08/06 11:46:23;;;;;;;2.07;1.60;;;27.50;67.40;;;;;;6102608;23;20469;-67
2022/08/06 11:49:27;;;;;;;2.37;1.60;;;27.60;68.90;;;;;;6113022;23;21157;-67
2022/08/06 11:51:56;;;;;;;2.40;1.70;;;28.10;66.30;;;;;;6112958;23;20449;-71
2022/08/06 11:54:25;;;;;;;1.53;1.43;;;28.10;64.80;;;;;;6108032;23;20437;-67
2022/08/06 11:57:25;;;;;;;2.43;1.73;;;27.90;66.50;;;;;;6100623;23;22186;-67
2022/08/06 12:00:13;;;;;;;2.07;1.50;;;28.00;66.60;;;;;;6107421;23;20465;-67
2022/08/06 12:02:59;;;;;;;1.80;1.70;;;28.60;67.90;;;;;;6109380;23;20457;-66
2022/08/06 12:05:41;;;;;;;1.87;1.70;;;29.10;66.70;;;;;;6109922;23;20477;-66
2022/08/06 12:08:29;;;;;;;5.07;1.70;;;29.80;64.70;;;;;;6111157;23;20473;-66
2022/08/06 15:59:33;;;;;;;1.40;1.10;;;37.00;39.50;;;;;;6104358;23;20619;-67
2022/08/06 16:02:00;;;;;;;1.00;0.90;;;36.70;39.40;;;;;;6105862;23;20523;-67
2022/08/06 16:04:28;;;;;;;2.03;1.30;;;36.60;38.60;;;;;;6102452;23;21811;-67
2022/08/06 16:06:55;;;;;;;1.90;1.07;;;36.70;39.50;;;;;;6100078;23;20454;-68
2022/08/06 16:09:23;;;;;;;1.63;1.07;;;36.90;39.30;;;;;;6116600;23;20445;-67
2022/08/06 16:11:49;;;;;;;1.30;1.20;;;36.80;39.20;;;;;;6099509;23;20433;-67
2022/08/06 16:14:17;;;;;;;2.57;1.10;;;36.80;38.70;;;;;;6110876;23;20434;-67
2022/08/06 16:16:45;;;;;;;1.00;0.80;;;36.70;38.00;;;;;;6104890;23;20529;-67
2022/08/06 16:19:12;;;;;;;1.40;1.20;;;36.50;38.50;;;;;;6098968;23;20477;-67
2022/08/06 16:21:39;;;;;;;1.20;1.10;;;36.30;37.60;;;;;;6100243;23;20480;-67
2022/08/06 16:24:07;;;;;;;1.47;1.10;;;35.90;39.20;;;;;;6116158;23;20516;-69
2022/08/06 16:26:35;;;;;;;1.77;1.03;;;35.60;38.80;;;;;;6099703;23;20832;-67
2022/08/06 16:29:02;;;;;;;3.10;1.27;;;35.00;38.40;;;;;;6106528;23;20442;-67
2022/08/06 16:31:29;;;;;;;2.77;1.10;;;34.20;38.50;;;;;;6107649;23;20939;-67
2022/08/06 16:33:58;;;;;;;1.87;1.17;;;33.60;40.90;;;;;;6101134;23;20513;-67
2022/08/06 16:36:25;;;;;;;2.07;1.00;;;32.90;41.00;;;;;;6107135;23;20461;-67
2022/08/06 16:38:52;;;;;;;3.03;1.20;;;32.10;41.30;;;;;;6102087;23;20469;-67
2022/08/06 16:41:19;;;;;;;1.67;1.27;;;31.40;42.20;;;;;;6097778;23;20429;-67
2022/08/06 16:43:46;;;;;;;1.97;1.20;;;30.80;43.20;;;;;;6096232;23;20441;-67
2022/08/06 16:46:14;;;;;;;1.27;1.10;;;30.30;44.20;;;;;;6105550;23;20453;-68
2022/08/06 16:48:41;;;;;;;1.20;1.00;;;29.70;43.80;;;;;;6103030;23;20479;-67
2022/08/06 16:51:14;;;;;;;1.57;0.93;;;29.30;44.40;;;;;;6099226;23;20470;-68
2022/08/06 16:53:42;;;;;;;1.63;1.17;;;28.70;44.60;;;;;;6100679;23;20472;-67
2022/08/06 16:56:09;;;;;;;2.20;1.20;;;28.30;46.10;;;;;;6092296;23;20986;-68